Time,TemperatureF,DewpointF,PressureIn,WindDirection,WindDirectionDegrees,WindSpeedMPH,WindSpeedGustMPH,Humidity,HourlyPrecipIn,Conditions,Clouds,dailyrainin,SoftwareType,DateUTC
2013-09-16 00:11:00,66.0,58.0,27.65,NW,309,1.0,7.0,76,0.00,,,0.17,,2013-09-16 07:11:00,
2013-09-16 00:21:00,65.0,58.0,27.62,WNW,299,6.0,11.0,78,0.00,,,0.17,,2013-09-16 07:21:00,
2013-09-16 00:43:00,66.0,58.0,27.66,NNW,332,3.0,8.0,76,0.00,,,0.17,,2013-09-16 07:43:00,
2013-09-16 00:52:00,66.0,58.0,27.65,West,269,4.0,7.0,75,0.00,,,0.17,,2013-09-16 07:52:00,
2013-09-16 01:11:00,67.0,58.0,27.65,NW,314,3.0,11.0,73,0.00,,,0.17,,2013-09-16 08:11:00,
2013-09-16 01:21:00,65.0,57.0,27.65,WNW,283,2.0,5.0,76,0.00,,,0.17,,2013-09-16 08:21:00,
2013-09-16 01:42:00,65.0,57.0,27.66,NW,310,3.0,7.0,76,0.00,,,0.17,,2013-09-16 08:42:00,
2013-09-16 01:52:00,65.0,59.0,27.67,WSW,245,0.0,3.0,80,0.00,,,0.17,,2013-09-16 08:52:00,
2013-09-16 02:11:00,64.0,57.0,27.68,West,264,2.0,6.0,78,0.00,,,0.17,,2013-09-16 09:11:00,
2013-09-16 02:22:00,64.0,58.0,27.68,WSW,250,0.0,3.0,80,0.00,,,0.17,,2013-09-16 09:22:00,
2013-09-16 02:43:00,63.0,57.0,27.68,South,169,0.0,1.0,82,0.00,,,0.17,,2013-09-16 09:43:00,
2013-09-16 02:53:00,64.0,58.0,27.69,South,184,0.0,0.0,81,0.00,,,0.17,,2013-09-16 09:53:00,
2013-09-16 03:12:00,64.0,59.0,27.69,South,184,0.0,1.0,83,0.00,,,0.17,,2013-09-16 10:12:00,
2013-09-16 03:23:00,64.0,57.0,27.70,SE,124,0.0,3.0,79,0.00,,,0.17,,2013-09-16 10:23:00,
2013-09-16 03:42:00,64.0,58.0,27.70,SE,125,0.0,1.0,81,0.00,,,0.17,,2013-09-16 10:42:00,
2013-09-16 03:53:00,63.0,57.0,27.70,SE,127,0.0,0.0,82,0.00,,,0.17,,2013-09-16 10:53:00,
2013-09-16 04:12:00,63.0,58.0,27.71,SE,127,0.0,1.0,83,0.00,,,0.17,,2013-09-16 11:12:00,
2013-09-16 04:22:00,63.0,58.0,27.71,SE,127,0.0,0.0,83,0.00,,,0.17,,2013-09-16 11:22:00,
2013-09-16 04:42:00,63.0,58.0,27.71,SE,127,0.0,0.0,83,0.00,,,0.17,,2013-09-16 11:42:00,
2013-09-16 04:52:00,63.0,58.0,27.71,SE,125,0.0,1.0,83,0.00,,,0.17,,2013-09-16 11:52:00,
2013-09-16 05:12:00,63.0,58.0,27.71,ESE,102,0.0,1.0,83,0.00,,,0.17,,2013-09-16 12:12:00,
2013-09-16 05:21:00,63.0,58.0,27.72,ESE,102,0.0,1.0,84,0.00,,,0.17,,2013-09-16 12:21:00,
2013-09-16 05:32:00,63.0,58.0,27.72,ESE,102,0.0,1.0,84,0.00,,,0.17,,2013-09-16 12:32:00,
2013-09-16 05:52:00,63.0,58.0,27.71,East,101,0.0,1.0,85,0.00,,,0.17,,2013-09-16 12:52:00,
2013-09-16 06:11:00,63.0,58.0,27.71,NNE,18,0.0,1.0,85,0.00,,,0.17,,2013-09-16 13:11:00,
2013-09-16 06:21:00,63.0,58.0,27.72,East,91,0.0,1.0,84,0.00,,,0.17,,2013-09-16 13:21:00,
2013-09-16 06:52:00,63.0,57.0,27.71,North,351,0.0,1.0,82,0.00,,,0.17,,2013-09-16 13:52:00,
2013-09-16 07:11:00,64.0,57.0,27.72,SE,135,0.0,3.0,79,0.00,,,0.17,,2013-09-16 14:11:00,
2013-09-16 07:21:00,63.0,57.0,27.73,SW,235,0.0,4.0,81,0.00,,,0.17,,2013-09-16 14:21:00,
2013-09-16 07:52:00,64.0,57.0,27.73,NW,316,2.0,9.0,78,0.00,,,0.17,,2013-09-16 14:52:00,
2013-09-16 08:11:00,64.0,57.0,27.73,NW,319,3.0,6.0,77,0.00,,,0.17,,2013-09-16 15:11:00,
2013-09-16 08:22:00,64.0,56.0,27.73,WNW,291,4.0,9.0,75,0.00,,,0.17,,2013-09-16 15:22:00,
2013-09-16 08:43:00,65.0,56.0,27.73,NNW,335,5.0,13.0,74,0.00,,,0.17,,2013-09-16 15:43:00,
2013-09-16 08:53:00,66.0,56.0,27.79,NNW,328,7.0,14.0,71,0.00,,,0.17,,2013-09-16 15:53:00,
2013-09-16 09:12:00,66.0,56.0,27.74,NNW,339,6.0,11.0,71,0.00,,,0.17,,2013-09-16 16:12:00,
2013-09-16 09:23:00,67.0,56.0,27.80,NW,323,4.0,9.0,69,0.00,,,0.17,,2013-09-16 16:23:00,
2013-09-16 09:43:00,67.0,55.0,27.74,NW,304,4.0,10.0,66,0.00,,,0.17,,2013-09-16 16:43:00,
2013-09-16 09:52:00,69.0,55.0,27.80,West,273,6.0,13.0,62,0.00,,,0.17,,2013-09-16 16:52:00,
2013-09-16 10:12:00,69.0,55.0,27.75,WNW,286,4.0,10.0,62,0.00,,,0.17,,2013-09-16 17:12:00,
2013-09-16 10:23:00,70.0,56.0,27.81,NW,304,6.0,10.0,61,0.00,,,0.17,,2013-09-16 17:23:00,
2013-09-16 10:42:00,70.0,55.0,27.75,WNW,288,8.0,13.0,58,0.00,,,0.17,,2013-09-16 17:42:00,
2013-09-16 10:53:00,71.0,55.0,27.81,West,276,7.0,13.0,57,0.00,,,0.17,,2013-09-16 17:53:00,
2013-09-16 11:12:00,71.0,55.0,27.75,WNW,303,5.0,11.0,57,0.00,,,0.17,,2013-09-16 18:12:00,
2013-09-16 11:22:00,72.0,54.0,27.80,West,262,7.0,13.0,54,0.00,,,0.17,,2013-09-16 18:22:00,
2013-09-16 11:42:00,71.0,53.0,27.76,WNW,284,7.0,13.0,53,0.00,,,0.17,,2013-09-16 18:42:00,
2013-09-16 11:52:00,73.0,55.0,27.81,WNW,300,7.0,11.0,53,0.00,,,0.17,,2013-09-16 18:52:00,
2013-09-16 12:11:00,72.0,53.0,27.76,WNW,302,6.0,12.0,52,0.00,,,0.17,,2013-09-16 19:11:00,
2013-09-16 12:22:00,73.0,53.0,27.76,NNW,342,7.0,14.0,50,0.00,,,0.17,,2013-09-16 19:22:00,
2013-09-16 12:42:00,73.0,53.0,27.76,NW,323,5.0,10.0,49,0.00,,,0.17,,2013-09-16 19:42:00,
2013-09-16 12:53:00,74.0,53.0,27.81,North,356,3.0,12.0,48,0.00,,,0.17,,2013-09-16 19:53:00,
2013-09-16 13:11:00,74.0,52.0,27.76,NW,321,7.0,12.0,47,0.00,,,0.17,,2013-09-16 20:11:00,
2013-09-16 13:22:00,75.0,53.0,27.80,WNW,298,4.0,11.0,47,0.00,,,0.17,,2013-09-16 20:22:00,
2013-09-16 13:42:00,75.0,52.0,27.75,NW,319,6.0,11.0,45,0.00,,,0.17,,2013-09-16 20:42:00,
2013-09-16 13:52:00,76.0,52.0,27.80,WNW,291,6.0,14.0,44,0.00,,,0.17,,2013-09-16 20:52:00,
2013-09-16 14:11:00,75.0,52.0,27.74,NW,304,6.0,13.0,44,0.00,,,0.17,,2013-09-16 21:11:00,
2013-09-16 14:21:00,76.0,51.0,27.79,NNW,343,5.0,11.0,42,0.00,,,0.17,,2013-09-16 21:21:00,
2013-09-16 14:55:00,76.0,52.0,27.79,NW,311,3.0,11.0,43,0.00,,,0.17,,2013-09-16 21:55:00,
2013-09-16 15:13:00,75.0,50.0,27.73,WNW,288,7.0,13.0,41,0.00,,,0.17,,2013-09-16 22:13:00,
2013-09-16 15:24:00,76.0,51.0,27.79,WNW,291,7.0,11.0,42,0.00,,,0.17,,2013-09-16 22:24:00,
2013-09-16 15:42:00,76.0,50.0,27.73,WNW,293,6.0,15.0,40,0.00,,,0.17,,2013-09-16 22:42:00,
2013-09-16 15:53:00,77.0,50.0,27.78,NNW,342,8.0,16.0,39,0.00,,,0.17,,2013-09-16 22:53:00,
2013-09-16 16:12:00,76.0,51.0,27.73,WNW,295,5.0,9.0,41,0.00,,,0.17,,2013-09-16 23:12:00,
2013-09-16 16:22:00,76.0,50.0,27.77,NW,321,8.0,14.0,40,0.00,,,0.17,,2013-09-16 23:22:00,
2013-09-16 16:43:00,75.0,50.0,27.72,NW,307,6.0,13.0,41,0.00,,,0.17,,2013-09-16 23:43:00,
2013-09-16 16:52:00,75.0,50.0,27.77,NW,311,8.0,14.0,42,0.00,,,0.17,,2013-09-16 23:52:00,
2013-09-16 17:11:00,74.0,50.0,27.73,WNW,291,6.0,12.0,43,0.00,,,0.17,,2013-09-17 00:11:00,
2013-09-16 17:21:00,75.0,51.0,27.77,WNW,293,4.0,10.0,43,0.00,,,0.17,,2013-09-17 00:21:00,
2013-09-16 17:42:00,75.0,50.0,27.73,WNW,290,8.0,13.0,42,0.00,,,0.17,,2013-09-17 00:42:00,
2013-09-16 17:52:00,75.0,51.0,27.77,WNW,300,8.0,17.0,43,0.00,,,0.17,,2013-09-17 00:52:00,
2013-09-16 18:11:00,74.0,50.0,27.73,WNW,297,11.0,17.0,43,0.00,,,0.17,,2013-09-17 01:11:00,
2013-09-16 18:21:00,74.0,51.0,27.77,NW,323,7.0,13.0,44,0.00,,,0.17,,2013-09-17 01:21:00,
2013-09-16 18:42:00,73.0,50.0,27.72,WNW,293,8.0,15.0,44,0.00,,,0.17,,2013-09-17 01:42:00,
2013-09-16 18:52:00,73.0,51.0,27.77,NW,310,9.0,16.0,46,0.00,,,0.17,,2013-09-17 01:52:00,
2013-09-16 19:11:00,71.0,50.0,27.73,WSW,242,5.0,10.0,47,0.00,,,0.17,,2013-09-17 02:11:00,
2013-09-16 19:22:00,71.0,50.0,27.78,NW,318,8.0,12.0,48,0.00,,,0.17,,2013-09-17 02:22:00,
2013-09-16 19:42:00,71.0,51.0,27.73,NW,321,5.0,14.0,49,0.00,,,0.17,,2013-09-17 02:42:00,
2013-09-16 19:52:00,70.0,50.0,27.78,West,277,6.0,15.0,50,0.00,,,0.17,,2013-09-17 02:52:00,
2013-09-16 20:11:00,70.0,50.0,27.74,WNW,288,8.0,16.0,50,0.00,,,0.17,,2013-09-17 03:11:00,
2013-09-16 20:23:00,70.0,51.0,27.79,NW,307,5.0,12.0,51,0.00,,,0.17,,2013-09-17 03:23:00,
2013-09-16 20:45:00,68.0,50.0,27.75,WNW,299,4.0,8.0,52,0.00,,,0.17,,2013-09-17 03:45:00,
2013-09-16 20:54:00,68.0,50.0,27.75,WNW,299,7.0,15.0,53,0.00,,,0.17,,2013-09-17 03:54:00,
2013-09-16 21:14:00,68.0,50.0,27.75,NW,314,8.0,17.0,53,0.00,,,0.17,,2013-09-17 04:14:00,
2013-09-16 21:24:00,67.0,49.0,27.75,WNW,284,9.0,17.0,52,0.00,,,0.17,,2013-09-17 04:24:00,
2013-09-16 21:44:00,67.0,48.0,27.76,NW,312,7.0,15.0,51,0.00,,,0.17,,2013-09-17 04:44:00,
2013-09-16 21:53:00,67.0,49.0,27.76,WNW,302,7.0,14.0,53,0.00,,,0.17,,2013-09-17 04:53:00,
2013-09-16 22:12:00,66.0,49.0,27.76,NW,306,8.0,14.0,54,0.00,,,0.17,,2013-09-17 05:12:00,
2013-09-16 22:23:00,66.0,49.0,27.76,WNW,293,8.0,14.0,55,0.00,,,0.17,,2013-09-17 05:23:00,
2013-09-16 22:42:00,66.0,49.0,27.76,WNW,300,6.0,12.0,55,0.00,,,0.09,,2013-09-17 05:42:00,
2013-09-16 22:52:00,65.0,49.0,27.76,WNW,293,5.0,11.0,57,0.00,,,0.09,,2013-09-17 05:52:00,
2013-09-16 23:12:00,65.0,50.0,27.76,WNW,297,3.0,11.0,58,0.00,,,0.09,,2013-09-17 06:12:00,
2013-09-16 23:22:00,65.0,50.0,27.81,WNW,293,5.0,7.0,59,0.00,,,0.09,,2013-09-17 06:22:00,
2013-09-16 23:42:00,65.0,50.0,27.76,WNW,300,5.0,9.0,59,0.00,,,0.00,,2013-09-17 06:42:00,
2013-09-16 23:52:00,65.0,51.0,27.81,NW,308,4.0,7.0,61,0.00,,,0.00,,2013-09-17 06:52:00,